sensor_id;sensor_type;location;lat;lon;timestamp;temperature;humidity
11591;DHT22;5851;54.050;9.974;2023-11-21T00:01:26;8.10;99.90
11591;DHT22;5851;54.050;9.974;2023-11-21T00:03:53;8.10;99.90
11591;DHT22;5851;54.050;9.974;2023-11-21T00:06:20;8.00;99.90
11591;DHT22;5851;54.050;9.974;2023-11-21T00:08:47;8.10;99.90
11591;DHT22;5851;54.050;9.974;2023-11-21T00:11:14;8.00;99.90
11591;DHT22;5851;54.050;9.974;2023-11-21T00:13:41;8.20;99.90
11591;DHT22;5851;54.050;9.974;2023-11-21T00:16:09;8.10;99.90
11591;DHT22;5851;54.050;9.974;2023-11-21T00:18:37;8.10;99.90
11591;DHT22;5851;54.050;9.974;2023-11-21T00:21:05;8.00;99.90
11591;DHT22;5851;54.050;9.974;2023-11-21T00:23:32;7.90;99.90
11591;DHT22;5851;54.050;9.974;2023-11-21T00:25:59;7.90;99.90
11591;DHT22;5851;54.050;9.974;2023-11-21T00:28:26;8.00;99.90
11591;DHT22;5851;54.050;9.974;2023-11-21T00:30:53;8.00;99.90
11591;DHT22;5851;54.050;9.974;2023-11-21T00:33:20;7.90;99.90
11591;DHT22;5851;54.050;9.974;2023-11-21T00:35:48;8.00;99.90
11591;DHT22;5851;54.050;9.974;2023-11-21T00:38:16;7.90;99.90
11591;DHT22;5851;54.050;9.974;2023-11-21T00:40:45;7.90;99.90
11591;DHT22;5851;54.050;9.974;2023-11-21T00:43:12;7.90;99.90
11591;DHT22;5851;54.050;9.974;2023-11-21T00:45:39;7.90;99.90
11591;DHT22;5851;54.050;9.974;2023-11-21T00:48:06;7.80;99.90
11591;DHT22;5851;54.050;9.974;2023-11-21T00:50:34;7.90;99.90
11591;DHT22;5851;54.050;9.974;2023-11-21T00:53:02;7.80;99.90
11591;DHT22;5851;54.050;9.974;2023-11-21T00:55:29;7.80;99.90
11591;DHT22;5851;54.050;9.974;2023-11-21T00:57:56;7.80;99.90
11591;DHT22;5851;54.050;9.974;2023-11-21T01:00:23;7.80;99.90
11591;DHT22;5851;54.050;9.974;2023-11-21T01:02:50;7.80;99.90
11591;DHT22;5851;54.050;9.974;2023-11-21T01:05:17;7.80;99.90
11591;DHT22;5851;54.050;9.974;2023-11-21T01:07:45;7.80;99.90
11591;DHT22;5851;54.050;9.974;2023-11-21T01:10:13;7.90;99.90
11591;DHT22;5851;54.050;9.974;2023-11-21T01:12:42;7.80;99.90
11591;DHT22;5851;54.050;9.974;2023-11-21T01:15:09;7.70;99.90
11591;DHT22;5851;54.050;9.974;2023-11-21T01:17:37;7.70;99.90
11591;DHT22;5851;54.050;9.974;2023-11-21T01:20:06;7.70;99.90
11591;DHT22;5851;54.050;9.974;2023-11-21T01:22:37;7.80;99.90
11591;DHT22;5851;54.050;9.974;2023-11-21T01:25:04;7.80;99.90
11591;DHT22;5851;54.050;9.974;2023-11-21T01:27:34;7.80;99.90
11591;DHT22;5851;54.050;9.974;2023-11-21T01:30:03;7.90;99.90
11591;DHT22;5851;54.050;9.974;2023-11-21T01:32:30;7.80;99.90
11591;DHT22;5851;54.050;9.974;2023-11-21T01:34:57;7.70;99.90
11591;DHT22;5851;54.050;9.974;2023-11-21T01:37:24;7.80;99.90
11591;DHT22;5851;54.050;9.974;2023-11-21T01:39:53;7.70;99.90
11591;DHT22;5851;54.050;9.974;2023-11-21T01:42:20;7.70;99.90
11591;DHT22;5851;54.050;9.974;2023-11-21T01:44:48;7.70;99.90
11591;DHT22;5851;54.050;9.974;2023-11-21T01:47:16;7.80;99.90
11591;DHT22;5851;54.050;9.974;2023-11-21T01:49:44;7.70;99.90
11591;DHT22;5851;54.050;9.974;2023-11-21T01:52:12;7.70;99.90
11591;DHT22;5851;54.050;9.974;2023-11-21T01:54:39;7.80;99.90
11591;DHT22;5851;54.050;9.974;2023-11-21T01:57:08;7.80;99.90
11591;DHT22;5851;54.050;9.974;2023-11-21T01:59:36;7.80;99.90
11591;DHT22;5851;54.050;9.974;2023-11-21T02:02:05;7.90;99.90
11591;DHT22;5851;54.050;9.974;2023-11-21T02:04:32;8.00;99.90
11591;DHT22;5851;54.050;9.974;2023-11-21T02:06:59;7.90;99.90
11591;DHT22;5851;54.050;9.974;2023-11-21T02:09:27;7.80;99.90
11591;DHT22;5851;54.050;9.974;2023-11-21T02:11:55;7.80;99.90
11591;DHT22;5851;54.050;9.974;2023-11-21T02:14:24;7.80;99.90
11591;DHT22;5851;54.050;9.974;2023-11-21T02:16:53;7.70;99.90
11591;DHT22;5851;54.050;9.974;2023-11-21T02:19:22;7.80;99.90
11591;DHT22;5851;54.050;9.974;2023-11-21T02:21:51;7.70;99.90
11591;DHT22;5851;54.050;9.974;2023-11-21T02:24:20;7.80;99.90
11591;DHT22;5851;54.050;9.974;2023-11-21T02:26:47;7.70;99.90
11591;DHT22;5851;54.050;9.974;2023-11-21T02:29:14;7.80;99.90
11591;DHT22;5851;54.050;9.974;2023-11-21T02:31:45;7.70;99.90
11591;DHT22;5851;54.050;9.974;2023-11-21T02:34:14;7.70;99.90
11591;DHT22;5851;54.050;9.974;2023-11-21T02:36:42;7.70;99.90
11591;DHT22;5851;54.050;9.974;2023-11-21T02:39:09;7.70;99.90
11591;DHT22;5851;54.050;9.974;2023-11-21T02:41:38;7.80;99.90
11591;DHT22;5851;54.050;9.974;2023-11-21T02:44:05;7.80;99.90
11591;DHT22;5851;54.050;9.974;2023-11-21T02:46:33;7.80;99.90
11591;DHT22;5851;54.050;9.974;2023-11-21T02:49:00;7.80;99.90
11591;DHT22;5851;54.050;9.974;2023-11-21T02:51:27;7.70;99.90
11591;DHT22;5851;54.050;9.974;2023-11-21T02:53:54;7.70;99.90
11591;DHT22;5851;54.050;9.974;2023-11-21T02:56:24;7.80;99.90
11591;DHT22;5851;54.050;9.974;2023-11-21T02:58:54;7.70;99.90
11591;DHT22;5851;54.050;9.974;2023-11-21T03:01:21;7.60;99.90
11591;DHT22;5851;54.050;9.974;2023-11-21T03:03:49;7.50;99.90
11591;DHT22;5851;54.050;9.974;2023-11-21T03:06:16;7.60;99.90
11591;DHT22;5851;54.050;9.974;2023-11-21T03:08:43;7.70;99.90
11591;DHT22;5851;54.050;9.974;2023-11-21T03:11:10;7.70;99.90
11591;DHT22;5851;54.050;9.974;2023-11-21T03:13:38;7.80;99.90
11591;DHT22;5851;54.050;9.974;2023-11-21T03:16:08;7.70;99.90
11591;DHT22;5851;54.050;9.974;2023-11-21T03:18:35;7.70;99.90
11591;DHT22;5851;54.050;9.974;2023-11-21T03:21:03;7.70;99.90
11591;DHT22;5851;54.050;9.974;2023-11-21T03:23:30;7.70;99.90
11591;DHT22;5851;54.050;9.974;2023-11-21T03:25:57;7.80;99.90
11591;DHT22;5851;54.050;9.974;2023-11-21T03:28:24;7.80;99.90
11591;DHT22;5851;54.050;9.974;2023-11-21T03:30:51;7.80;99.90
11591;DHT22;5851;54.050;9.974;2023-11-21T03:33:19;7.80;99.90
11591;DHT22;5851;54.050;9.974;2023-11-21T03:35:46;7.80;99.90
11591;DHT22;5851;54.050;9.974;2023-11-21T03:38:13;7.80;99.90
11591;DHT22;5851;54.050;9.974;2023-11-21T03:40:39;7.80;99.90
11591;DHT22;5851;54.050;9.974;2023-11-21T03:43:06;7.80;99.90
11591;DHT22;5851;54.050;9.974;2023-11-21T03:45:33;7.80;99.90
11591;DHT22;5851;54.050;9.974;2023-11-21T03:48:00;7.70;99.90
11591;DHT22;5851;54.050;9.974;2023-11-21T03:50:29;7.70;99.90
11591;DHT22;5851;54.050;9.974;2023-11-21T03:52:56;7.60;99.90
11591;DHT22;5851;54.050;9.974;2023-11-21T03:55:23;7.70;99.90
11591;DHT22;5851;54.050;9.974;2023-11-21T03:57:50;7.80;99.90
11591;DHT22;5851;54.050;9.974;2023-11-21T04:00:18;7.70;99.90
11591;DHT22;5851;54.050;9.974;2023-11-21T04:02:46;7.70;99.90
11591;DHT22;5851;54.050;9.974;2023-11-21T04:05:13;7.70;99.90
11591;DHT22;5851;54.050;9.974;2023-11-21T04:07:42;7.60;99.90
11591;DHT22;5851;54.050;9.974;2023-11-21T04:10:09;7.60;99.90
11591;DHT22;5851;54.050;9.974;2023-11-21T04:12:38;7.50;99.90
11591;DHT22;5851;54.050;9.974;2023-11-21T04:15:06;7.60;99.90
11591;DHT22;5851;54.050;9.974;2023-11-21T04:17:34;7.50;99.90
11591;DHT22;5851;54.050;9.974;2023-11-21T04:20:02;7.70;99.90
11591;DHT22;5851;54.050;9.974;2023-11-21T04:22:31;7.50;99.90
11591;DHT22;5851;54.050;9.974;2023-11-21T04:25:00;7.50;99.90
11591;DHT22;5851;54.050;9.974;2023-11-21T04:27:27;7.50;99.90
11591;DHT22;5851;54.050;9.974;2023-11-21T04:29:53;7.50;99.90
11591;DHT22;5851;54.050;9.974;2023-11-21T04:32:20;7.40;99.90
11591;DHT22;5851;54.050;9.974;2023-11-21T04:34:47;7.40;99.90
11591;DHT22;5851;54.050;9.974;2023-11-21T04:37:14;7.50;99.90
11591;DHT22;5851;54.050;9.974;2023-11-21T04:39:41;7.50;99.90
11591;DHT22;5851;54.050;9.974;2023-11-21T04:42:09;7.40;99.90
11591;DHT22;5851;54.050;9.974;2023-11-21T04:44:37;7.40;99.90
11591;DHT22;5851;54.050;9.974;2023-11-21T04:47:06;7.30;99.90
11591;DHT22;5851;54.050;9.974;2023-11-21T04:49:33;7.40;99.90
11591;DHT22;5851;54.050;9.974;2023-11-21T04:52:00;7.40;99.90
11591;DHT22;5851;54.050;9.974;2023-11-21T04:54:30;7.40;99.90
11591;DHT22;5851;54.050;9.974;2023-11-21T04:56:57;7.40;99.90
11591;DHT22;5851;54.050;9.974;2023-11-21T04:59:25;7.40;99.90
11591;DHT22;5851;54.050;9.974;2023-11-21T05:01:53;7.40;99.90
11591;DHT22;5851;54.050;9.974;2023-11-21T05:04:20;7.40;99.90
11591;DHT22;5851;54.050;9.974;2023-11-21T05:06:48;7.50;99.90
11591;DHT22;5851;54.050;9.974;2023-11-21T05:09:15;7.50;99.90
11591;DHT22;5851;54.050;9.974;2023-11-21T05:11:42;7.60;99.90
11591;DHT22;5851;54.050;9.974;2023-11-21T05:14:09;7.50;99.90
11591;DHT22;5851;54.050;9.974;2023-11-21T05:16:37;7.50;99.90
11591;DHT22;5851;54.050;9.974;2023-11-21T05:19:04;7.40;99.90
11591;DHT22;5851;54.050;9.974;2023-11-21T05:21:32;7.40;99.90
11591;DHT22;5851;54.050;9.974;2023-11-21T05:23:59;7.40;99.90
11591;DHT22;5851;54.050;9.974;2023-11-21T05:26:26;7.40;99.90
11591;DHT22;5851;54.050;9.974;2023-11-21T05:28:53;7.50;99.90
11591;DHT22;5851;54.050;9.974;2023-11-21T05:31:20;7.50;99.90
11591;DHT22;5851;54.050;9.974;2023-11-21T05:33:48;7.40;99.90
11591;DHT22;5851;54.050;9.974;2023-11-21T05:36:15;7.40;99.90
11591;DHT22;5851;54.050;9.974;2023-11-21T05:38:42;7.40;99.90
11591;DHT22;5851;54.050;9.974;2023-11-21T05:41:09;7.40;99.90
11591;DHT22;5851;54.050;9.974;2023-11-21T05:43:38;7.50;99.90
11591;DHT22;5851;54.050;9.974;2023-11-21T05:46:06;7.50;99.90
11591;DHT22;5851;54.050;9.974;2023-11-21T05:48:34;7.50;99.90
11591;DHT22;5851;54.050;9.974;2023-11-21T05:51:04;7.40;99.90
11591;DHT22;5851;54.050;9.974;2023-11-21T05:53:31;7.40;99.90
11591;DHT22;5851;54.050;9.974;2023-11-21T05:55:58;7.40;99.90
11591;DHT22;5851;54.050;9.974;2023-11-21T05:58:25;7.40;99.90
11591;DHT22;5851;54.050;9.974;2023-11-21T06:00:52;7.40;99.90
11591;DHT22;5851;54.050;9.974;2023-11-21T06:03:19;7.50;99.90
11591;DHT22;5851;54.050;9.974;2023-11-21T06:05:46;7.50;99.90
11591;DHT22;5851;54.050;9.974;2023-11-21T06:08:14;7.40;99.90
11591;DHT22;5851;54.050;9.974;2023-11-21T06:10:42;7.40;99.90
11591;DHT22;5851;54.050;9.974;2023-11-21T06:13:09;7.40;99.90
11591;DHT22;5851;54.050;9.974;2023-11-21T06:15:36;7.40;99.90
11591;DHT22;5851;54.050;9.974;2023-11-21T06:18:03;7.40;99.90
11591;DHT22;5851;54.050;9.974;2023-11-21T06:20:35;7.40;99.90
11591;DHT22;5851;54.050;9.974;2023-11-21T06:23:03;7.50;99.90
11591;DHT22;5851;54.050;9.974;2023-11-21T06:25:31;7.40;99.90
11591;DHT22;5851;54.050;9.974;2023-11-21T06:27:58;7.40;99.90
11591;DHT22;5851;54.050;9.974;2023-11-21T06:30:25;7.40;99.90
11591;DHT22;5851;54.050;9.974;2023-11-21T06:32:53;7.30;99.90
11591;DHT22;5851;54.050;9.974;2023-11-21T06:35:24;7.40;99.90
11591;DHT22;5851;54.050;9.974;2023-11-21T06:37:53;7.40;99.90
11591;DHT22;5851;54.050;9.974;2023-11-21T06:40:20;7.40;99.90
11591;DHT22;5851;54.050;9.974;2023-11-21T06:42:48;7.50;99.90
11591;DHT22;5851;54.050;9.974;2023-11-21T06:45:15;7.40;99.90
11591;DHT22;5851;54.050;9.974;2023-11-21T06:47:43;7.50;99.90
11591;DHT22;5851;54.050;9.974;2023-11-21T06:50:10;7.40;99.90
11591;DHT22;5851;54.050;9.974;2023-11-21T06:52:37;7.40;99.90
11591;DHT22;5851;54.050;9.974;2023-11-21T06:55:05;7.40;99.90
11591;DHT22;5851;54.050;9.974;2023-11-21T06:57:33;7.40;99.90
11591;DHT22;5851;54.050;9.974;2023-11-21T07:00:03;7.40;99.90
11591;DHT22;5851;54.050;9.974;2023-11-21T07:02:30;7.40;99.90
11591;DHT22;5851;54.050;9.974;2023-11-21T07:04:57;7.40;99.90
11591;DHT22;5851;54.050;9.974;2023-11-21T07:07:24;7.30;99.90
11591;DHT22;5851;54.050;9.974;2023-11-21T07:09:51;7.40;99.90
11591;DHT22;5851;54.050;9.974;2023-11-21T07:12:18;7.50;99.90
11591;DHT22;5851;54.050;9.974;2023-11-21T07:14:45;7.40;99.90
11591;DHT22;5851;54.050;9.974;2023-11-21T07:17:13;7.40;99.90
11591;DHT22;5851;54.050;9.974;2023-11-21T07:19:41;7.40;99.90
11591;DHT22;5851;54.050;9.974;2023-11-21T07:22:08;7.30;99.90
11591;DHT22;5851;54.050;9.974;2023-11-21T07:24:37;7.30;99.90
11591;DHT22;5851;54.050;9.974;2023-11-21T07:27:03;7.40;99.90
11591;DHT22;5851;54.050;9.974;2023-11-21T07:29:30;7.40;99.90
11591;DHT22;5851;54.050;9.974;2023-11-21T07:31:58;7.40;99.90
11591;DHT22;5851;54.050;9.974;2023-11-21T07:34:27;7.40;99.90
11591;DHT22;5851;54.050;9.974;2023-11-21T07:36:54;7.40;99.90
11591;DHT22;5851;54.050;9.974;2023-11-21T07:39:21;7.30;99.90
11591;DHT22;5851;54.050;9.974;2023-11-21T07:41:48;7.30;99.90
11591;DHT22;5851;54.050;9.974;2023-11-21T07:44:16;7.20;99.90
11591;DHT22;5851;54.050;9.974;2023-11-21T07:46:43;7.30;99.90
11591;DHT22;5851;54.050;9.974;2023-11-21T07:49:11;7.30;99.90
11591;DHT22;5851;54.050;9.974;2023-11-21T07:51:41;7.20;99.90
11591;DHT22;5851;54.050;9.974;2023-11-21T07:54:09;7.20;99.90
11591;DHT22;5851;54.050;9.974;2023-11-21T07:56:36;7.20;99.90
11591;DHT22;5851;54.050;9.974;2023-11-21T07:59:03;7.30;99.90
11591;DHT22;5851;54.050;9.974;2023-11-21T08:01:30;7.30;99.90
11591;DHT22;5851;54.050;9.974;2023-11-21T08:03:57;7.30;99.90
11591;DHT22;5851;54.050;9.974;2023-11-21T08:06:27;7.20;99.90
11591;DHT22;5851;54.050;9.974;2023-11-21T08:08:55;7.20;99.90
11591;DHT22;5851;54.050;9.974;2023-11-21T08:11:22;7.30;99.90
11591;DHT22;5851;54.050;9.974;2023-11-21T08:13:49;7.30;99.90
11591;DHT22;5851;54.050;9.974;2023-11-21T08:16:16;7.20;99.90
11591;DHT22;5851;54.050;9.974;2023-11-21T08:18:43;7.20;99.90
11591;DHT22;5851;54.050;9.974;2023-11-21T08:21:12;7.20;99.90
11591;DHT22;5851;54.050;9.974;2023-11-21T08:23:39;7.20;99.90
11591;DHT22;5851;54.050;9.974;2023-11-21T08:26:07;7.20;99.90
11591;DHT22;5851;54.050;9.974;2023-11-21T08:28:35;7.20;99.90
11591;DHT22;5851;54.050;9.974;2023-11-21T08:31:01;7.20;99.90
11591;DHT22;5851;54.050;9.974;2023-11-21T08:33:30;7.20;99.90
11591;DHT22;5851;54.050;9.974;2023-11-21T08:35:57;7.30;99.90
11591;DHT22;5851;54.050;9.974;2023-11-21T08:38:23;7.30;99.90
11591;DHT22;5851;54.050;9.974;2023-11-21T08:40:50;7.30;99.90
11591;DHT22;5851;54.050;9.974;2023-11-21T08:43:19;7.30;99.90
11591;DHT22;5851;54.050;9.974;2023-11-21T08:45:46;7.30;99.90
11591;DHT22;5851;54.050;9.974;2023-11-21T08:48:13;7.30;99.90
11591;DHT22;5851;54.050;9.974;2023-11-21T08:50:40;7.30;99.90
11591;DHT22;5851;54.050;9.974;2023-11-21T08:53:07;7.40;99.90
11591;DHT22;5851;54.050;9.974;2023-11-21T08:55:33;7.30;99.90
11591;DHT22;5851;54.050;9.974;2023-11-21T08:58:03;7.30;99.90
11591;DHT22;5851;54.050;9.974;2023-11-21T09:00:32;7.30;99.90
11591;DHT22;5851;54.050;9.974;2023-11-21T09:03:01;7.30;99.90
11591;DHT22;5851;54.050;9.974;2023-11-21T09:05:29;7.40;99.90
11591;DHT22;5851;54.050;9.974;2023-11-21T09:07:56;7.30;99.90
11591;DHT22;5851;54.050;9.974;2023-11-21T09:10:22;7.30;99.90
11591;DHT22;5851;54.050;9.974;2023-11-21T09:12:51;7.30;99.90
11591;DHT22;5851;54.050;9.974;2023-11-21T09:15:18;7.30;99.90
11591;DHT22;5851;54.050;9.974;2023-11-21T09:17:47;7.30;99.90
11591;DHT22;5851;54.050;9.974;2023-11-21T09:20:14;7.30;99.90
11591;DHT22;5851;54.050;9.974;2023-11-21T09:22:41;7.40;99.90
11591;DHT22;5851;54.050;9.974;2023-11-21T09:25:10;7.40;99.90
11591;DHT22;5851;54.050;9.974;2023-11-21T09:27:37;7.40;99.90
11591;DHT22;5851;54.050;9.974;2023-11-21T09:30:05;7.40;99.90
11591;DHT22;5851;54.050;9.974;2023-11-21T09:32:35;7.30;99.90
11591;DHT22;5851;54.050;9.974;2023-11-21T09:35:04;7.40;99.90
11591;DHT22;5851;54.050;9.974;2023-11-21T09:37:34;7.40;99.90
11591;DHT22;5851;54.050;9.974;2023-11-21T09:40:01;7.40;99.90
11591;DHT22;5851;54.050;9.974;2023-11-21T09:42:32;7.30;99.90
11591;DHT22;5851;54.050;9.974;2023-11-21T09:45:05;7.40;99.90
11591;DHT22;5851;54.050;9.974;2023-11-21T09:47:38;7.40;99.90
11591;DHT22;5851;54.050;9.974;2023-11-21T09:50:07;7.40;99.90
11591;DHT22;5851;54.050;9.974;2023-11-21T09:52:44;7.40;99.90
11591;DHT22;5851;54.050;9.974;2023-11-21T09:55:16;7.50;99.90
11591;DHT22;5851;54.050;9.974;2023-11-21T09:57:47;7.50;99.90
11591;DHT22;5851;54.050;9.974;2023-11-21T10:00:16;7.50;99.90
11591;DHT22;5851;54.050;9.974;2023-11-21T10:02:45;7.50;99.90
11591;DHT22;5851;54.050;9.974;2023-11-21T10:05:16;7.40;99.90
11591;DHT22;5851;54.050;9.974;2023-11-21T10:07:46;7.50;99.90
11591;DHT22;5851;54.050;9.974;2023-11-21T10:10:14;7.40;99.90
11591;DHT22;5851;54.050;9.974;2023-11-21T10:12:49;7.50;99.90
11591;DHT22;5851;54.050;9.974;2023-11-21T10:15:16;7.50;99.90
11591;DHT22;5851;54.050;9.974;2023-11-21T10:17:44;7.50;99.90
11591;DHT22;5851;54.050;9.974;2023-11-21T10:20:13;7.50;99.90
11591;DHT22;5851;54.050;9.974;2023-11-21T10:22:43;7.50;99.90
11591;DHT22;5851;54.050;9.974;2023-11-21T10:25:10;7.50;99.90
11591;DHT22;5851;54.050;9.974;2023-11-21T10:27:40;7.40;99.90
11591;DHT22;5851;54.050;9.974;2023-11-21T10:30:09;7.40;99.90
11591;DHT22;5851;54.050;9.974;2023-11-21T10:32:37;7.40;99.90
11591;DHT22;5851;54.050;9.974;2023-11-21T10:35:06;7.40;99.90
11591;DHT22;5851;54.050;9.974;2023-11-21T10:37:35;7.40;99.90
11591;DHT22;5851;54.050;9.974;2023-11-21T10:40:07;7.40;99.90
11591;DHT22;5851;54.050;9.974;2023-11-21T10:42:37;7.40;99.90
11591;DHT22;5851;54.050;9.974;2023-11-21T10:45:05;7.40;99.90
11591;DHT22;5851;54.050;9.974;2023-11-21T10:47:38;7.40;99.90
11591;DHT22;5851;54.050;9.974;2023-11-21T10:50:05;7.40;99.90
11591;DHT22;5851;54.050;9.974;2023-11-21T10:52:36;7.40;99.90
11591;DHT22;5851;54.050;9.974;2023-11-21T10:55:16;7.40;99.90
11591;DHT22;5851;54.050;9.974;2023-11-21T10:57:44;7.40;99.90
11591;DHT22;5851;54.050;9.974;2023-11-21T11:00:13;7.50;99.90
11591;DHT22;5851;54.050;9.974;2023-11-21T11:02:41;7.40;99.90
11591;DHT22;5851;54.050;9.974;2023-11-21T11:05:08;7.50;99.90
11591;DHT22;5851;54.050;9.974;2023-11-21T11:07:38;7.50;99.90
11591;DHT22;5851;54.050;9.974;2023-11-21T11:10:09;7.40;99.90
11591;DHT22;5851;54.050;9.974;2023-11-21T11:12:41;7.40;99.90
11591;DHT22;5851;54.050;9.974;2023-11-21T11:15:08;7.40;99.90
11591;DHT22;5851;54.050;9.974;2023-11-21T11:17:37;7.40;99.90
11591;DHT22;5851;54.050;9.974;2023-11-21T11:20:07;7.40;99.90
11591;DHT22;5851;54.050;9.974;2023-11-21T11:22:40;7.40;99.90
11591;DHT22;5851;54.050;9.974;2023-11-21T11:25:35;7.40;99.90
11591;DHT22;5851;54.050;9.974;2023-11-21T11:28:10;7.40;99.90
11591;DHT22;5851;54.050;9.974;2023-11-21T11:30:52;7.40;99.90
11591;DHT22;5851;54.050;9.974;2023-11-21T11:33:28;7.40;99.90
11591;DHT22;5851;54.050;9.974;2023-11-21T11:36:04;7.30;99.90
11591;DHT22;5851;54.050;9.974;2023-11-21T11:38:33;7.40;99.90
11591;DHT22;5851;54.050;9.974;2023-11-21T11:41:02;7.40;99.90
11591;DHT22;5851;54.050;9.974;2023-11-21T11:43:32;7.40;99.90
11591;DHT22;5851;54.050;9.974;2023-11-21T11:46:05;7.30;99.90
11591;DHT22;5851;54.050;9.974;2023-11-21T11:48:37;7.40;99.90
11591;DHT22;5851;54.050;9.974;2023-11-21T11:51:05;7.40;99.90
11591;DHT22;5851;54.050;9.974;2023-11-21T11:53:39;7.40;99.90
11591;DHT22;5851;54.050;9.974;2023-11-21T11:56:23;7.30;99.90
11591;DHT22;5851;54.050;9.974;2023-11-21T11:58:53;7.30;99.90
11591;DHT22;5851;54.050;9.974;2023-11-21T12:01:21;7.30;99.90
11591;DHT22;5851;54.050;9.974;2023-11-21T12:04:23;7.20;99.90
11591;DHT22;5851;54.050;9.974;2023-11-21T12:06:55;7.30;99.90
11591;DHT22;5851;54.050;9.974;2023-11-21T12:09:24;7.30;99.90
11591;DHT22;5851;54.050;9.974;2023-11-21T12:11:52;7.30;99.90
11591;DHT22;5851;54.050;9.974;2023-11-21T12:14:21;7.30;99.90
11591;DHT22;5851;54.050;9.974;2023-11-21T12:16:49;7.30;99.90
11591;DHT22;5851;54.050;9.974;2023-11-21T12:19:17;7.30;99.90
11591;DHT22;5851;54.050;9.974;2023-11-21T12:21:44;7.20;99.90
11591;DHT22;5851;54.050;9.974;2023-11-21T12:24:11;7.10;99.90
11591;DHT22;5851;54.050;9.974;2023-11-21T12:26:39;7.20;99.90
11591;DHT22;5851;54.050;9.974;2023-11-21T12:29:06;7.20;99.90
11591;DHT22;5851;54.050;9.974;2023-11-21T12:31:35;7.10;99.90
11591;DHT22;5851;54.050;9.974;2023-11-21T12:34:02;7.20;99.90
11591;DHT22;5851;54.050;9.974;2023-11-21T12:36:30;7.10;99.90
11591;DHT22;5851;54.050;9.974;2023-11-21T12:38:57;7.10;99.90
11591;DHT22;5851;54.050;9.974;2023-11-21T12:41:24;7.20;99.90
11591;DHT22;5851;54.050;9.974;2023-11-21T12:43:51;7.20;99.90
11591;DHT22;5851;54.050;9.974;2023-11-21T12:46:18;7.20;99.90
11591;DHT22;5851;54.050;9.974;2023-11-21T12:48:47;7.20;99.90
11591;DHT22;5851;54.050;9.974;2023-11-21T12:51:15;7.20;99.90
11591;DHT22;5851;54.050;9.974;2023-11-21T12:53:44;7.20;99.90
11591;DHT22;5851;54.050;9.974;2023-11-21T12:56:13;7.10;99.90
11591;DHT22;5851;54.050;9.974;2023-11-21T12:58:45;7.10;99.90
11591;DHT22;5851;54.050;9.974;2023-11-21T13:01:14;7.10;99.90
11591;DHT22;5851;54.050;9.974;2023-11-21T13:03:48;7.10;99.90
11591;DHT22;5851;54.050;9.974;2023-11-21T13:06:17;7.10;99.90
11591;DHT22;5851;54.050;9.974;2023-11-21T13:08:45;6.90;99.90
11591;DHT22;5851;54.050;9.974;2023-11-21T13:11:12;6.90;99.90
11591;DHT22;5851;54.050;9.974;2023-11-21T13:13:41;6.80;99.90
11591;DHT22;5851;54.050;9.974;2023-11-21T13:16:09;6.70;99.90
11591;DHT22;5851;54.050;9.974;2023-11-21T13:18:36;6.70;99.90
11591;DHT22;5851;54.050;9.974;2023-11-21T13:21:08;6.80;99.90
11591;DHT22;5851;54.050;9.974;2023-11-21T13:23:39;6.80;99.90
11591;DHT22;5851;54.050;9.974;2023-11-21T13:26:07;6.80;99.90
11591;DHT22;5851;54.050;9.974;2023-11-21T13:28:35;6.80;99.90
11591;DHT22;5851;54.050;9.974;2023-11-21T13:31:03;6.80;99.90
11591;DHT22;5851;54.050;9.974;2023-11-21T13:33:35;6.80;99.90
11591;DHT22;5851;54.050;9.974;2023-11-21T13:36:04;6.80;99.90
11591;DHT22;5851;54.050;9.974;2023-11-21T13:38:34;6.80;99.90
11591;DHT22;5851;54.050;9.974;2023-11-21T13:41:03;6.70;99.90
11591;DHT22;5851;54.050;9.974;2023-11-21T13:43:33;6.80;99.90
11591;DHT22;5851;54.050;9.974;2023-11-21T13:46:00;6.80;99.90
11591;DHT22;5851;54.050;9.974;2023-11-21T13:48:34;6.70;99.90
11591;DHT22;5851;54.050;9.974;2023-11-21T13:51:08;6.70;99.90
11591;DHT22;5851;54.050;9.974;2023-11-21T13:53:43;6.70;99.90
11591;DHT22;5851;54.050;9.974;2023-11-21T13:56:11;6.70;99.90
11591;DHT22;5851;54.050;9.974;2023-11-21T13:58:41;6.60;99.90
11591;DHT22;5851;54.050;9.974;2023-11-21T14:01:13;6.60;99.90
11591;DHT22;5851;54.050;9.974;2023-11-21T14:03:58;6.60;99.90
11591;DHT22;5851;54.050;9.974;2023-11-21T14:06:34;6.60;99.90
11591;DHT22;5851;54.050;9.974;2023-11-21T14:09:10;6.50;99.90
11591;DHT22;5851;54.050;9.974;2023-11-21T14:11:39;6.60;99.90
11591;DHT22;5851;54.050;9.974;2023-11-21T14:14:06;6.60;99.90
11591;DHT22;5851;54.050;9.974;2023-11-21T14:16:33;6.60;99.90
11591;DHT22;5851;54.050;9.974;2023-11-21T14:19:00;6.60;99.90
11591;DHT22;5851;54.050;9.974;2023-11-21T14:21:39;6.60;99.90
11591;DHT22;5851;54.050;9.974;2023-11-21T14:24:10;6.60;99.90
11591;DHT22;5851;54.050;9.974;2023-11-21T14:26:39;6.60;99.90
11591;DHT22;5851;54.050;9.974;2023-11-21T14:29:07;6.60;99.90
11591;DHT22;5851;54.050;9.974;2023-11-21T14:31:36;6.60;99.90
11591;DHT22;5851;54.050;9.974;2023-11-21T14:34:03;6.60;99.90
11591;DHT22;5851;54.050;9.974;2023-11-21T14:36:32;6.50;99.90
11591;DHT22;5851;54.050;9.974;2023-11-21T14:38:59;6.50;99.90
11591;DHT22;5851;54.050;9.974;2023-11-21T14:41:27;6.50;99.90
11591;DHT22;5851;54.050;9.974;2023-11-21T14:43:54;6.50;99.90
11591;DHT22;5851;54.050;9.974;2023-11-21T14:46:23;6.50;99.90
11591;DHT22;5851;54.050;9.974;2023-11-21T14:48:50;6.50;99.90
11591;DHT22;5851;54.050;9.974;2023-11-21T14:51:25;6.50;99.90
11591;DHT22;5851;54.050;9.974;2023-11-21T14:53:53;6.60;99.90
11591;DHT22;5851;54.050;9.974;2023-11-21T14:56:20;6.40;99.90
11591;DHT22;5851;54.050;9.974;2023-11-21T14:58:54;6.40;99.90
11591;DHT22;5851;54.050;9.974;2023-11-21T15:01:22;6.40;99.90
11591;DHT22;5851;54.050;9.974;2023-11-21T15:04:02;6.50;99.90
11591;DHT22;5851;54.050;9.974;2023-11-21T15:06:31;6.50;99.90
11591;DHT22;5851;54.050;9.974;2023-11-21T15:08:57;6.50;99.90
11591;DHT22;5851;54.050;9.974;2023-11-21T15:11:42;6.50;99.90
11591;DHT22;5851;54.050;9.974;2023-11-21T15:14:10;6.50;99.90
11591;DHT22;5851;54.050;9.974;2023-11-21T15:16:39;6.50;99.90
11591;DHT22;5851;54.050;9.974;2023-11-21T15:19:09;6.50;99.90
11591;DHT22;5851;54.050;9.974;2023-11-21T15:21:38;6.50;99.90
11591;DHT22;5851;54.050;9.974;2023-11-21T15:24:05;6.40;99.90
11591;DHT22;5851;54.050;9.974;2023-11-21T15:26:33;6.40;99.90
11591;DHT22;5851;54.050;9.974;2023-11-21T15:29:00;6.40;99.90
11591;DHT22;5851;54.050;9.974;2023-11-21T15:31:28;6.40;99.90
11591;DHT22;5851;54.050;9.974;2023-11-21T15:33:55;6.40;99.90
11591;DHT22;5851;54.050;9.974;2023-11-21T15:36:25;6.40;99.90
11591;DHT22;5851;54.050;9.974;2023-11-21T15:38:55;6.40;99.90
11591;DHT22;5851;54.050;9.974;2023-11-21T15:41:22;6.40;99.90
11591;DHT22;5851;54.050;9.974;2023-11-21T15:43:49;6.40;99.90
11591;DHT22;5851;54.050;9.974;2023-11-21T15:46:16;6.40;99.90
11591;DHT22;5851;54.050;9.974;2023-11-21T15:48:45;6.20;99.90
11591;DHT22;5851;54.050;9.974;2023-11-21T15:51:16;6.40;99.90
11591;DHT22;5851;54.050;9.974;2023-11-21T15:53:43;6.20;99.90
11591;DHT22;5851;54.050;9.974;2023-11-21T15:56:10;6.20;99.90
11591;DHT22;5851;54.050;9.974;2023-11-21T15:58:38;6.30;99.90
11591;DHT22;5851;54.050;9.974;2023-11-21T16:01:08;6.20;99.90
11591;DHT22;5851;54.050;9.974;2023-11-21T16:03:35;6.30;99.90
11591;DHT22;5851;54.050;9.974;2023-11-21T16:06:04;6.20;99.90
11591;DHT22;5851;54.050;9.974;2023-11-21T16:08:31;6.20;99.90
11591;DHT22;5851;54.050;9.974;2023-11-21T16:10:58;6.10;99.90